createdAt,value
2023-02-19T00:01:47.356Z,4.17
2023-02-19T00:06:53.107Z,4.18
2023-02-19T00:11:58.506Z,4.22
2023-02-19T00:17:04.023Z,4.29
2023-02-19T00:22:09.648Z,4.24
2023-02-19T00:27:15.174Z,4.32
2023-02-19T00:32:20.608Z,4.36
2023-02-19T00:37:26.121Z,4.38
2023-02-19T00:42:31.641Z,4.37
2023-02-19T00:47:37.065Z,4.37
2023-02-19T00:52:44.223Z,4.39
2023-02-19T00:57:49.730Z,4.47
2023-02-19T01:02:55.206Z,4.43
2023-02-19T01:08:02.467Z,4.41
2023-02-19T01:13:08.244Z,4.39
2023-02-19T01:18:14.129Z,4.29
2023-02-19T01:23:19.656Z,4.27
2023-02-19T01:28:25.182Z,4.27
2023-02-19T01:33:31.561Z,4.32
2023-02-19T01:38:38.163Z,4.29
2023-02-19T01:44:11.583Z,4.23
2023-02-19T01:49:26.022Z,4.23
2023-02-19T01:54:34.456Z,4.25
2023-02-19T01:59:40.866Z,4.21
2023-02-19T02:04:46.490Z,4.18
2023-02-19T02:10:12.927Z,4.24
2023-02-19T02:15:19.944Z,4.26
2023-02-19T02:20:28.454Z,4.27
2023-02-19T02:25:55.107Z,4.32
2023-02-19T02:31:05.057Z,4.29
2023-02-19T02:36:20.300Z,4.24
2023-02-19T02:41:27.091Z,4.25
2023-02-19T02:46:35.609Z,4.21
2023-02-19T02:51:46.907Z,4.22
2023-02-19T02:56:58.670Z,4.21
2023-02-19T03:02:19.269Z,4.18
2023-02-19T03:07:25.976Z,4.18
2023-02-19T03:12:51.950Z,4.23
2023-02-19T03:18:22.412Z,4.27
2023-02-19T03:23:48.937Z,4.18
2023-02-19T03:29:15.120Z,4.19
2023-02-19T03:34:30.343Z,4.20
2023-02-19T03:39:37.583Z,4.14
2023-02-19T03:44:58.216Z,4.07
2023-02-19T03:50:15.828Z,4.09
2023-02-19T03:55:27.405Z,4.10
2023-02-19T04:00:47.783Z,4.06
2023-02-19T04:05:56.676Z,4.08
2023-02-19T04:11:02.834Z,4.09
2023-02-19T04:16:13.029Z,4.13
2023-02-19T04:21:20.500Z,4.20
2023-02-19T04:26:26.213Z,4.17
2023-02-19T04:31:35.562Z,4.08
2023-02-19T04:36:41.016Z,4.22
2023-02-19T04:41:46.547Z,4.21
2023-02-19T04:46:52.020Z,4.30
2023-02-19T04:51:57.540Z,4.28
2023-02-19T04:57:02.927Z,4.33
2023-02-19T05:02:08.395Z,4.35
2023-02-19T05:07:14.160Z,4.37
2023-02-19T05:12:19.751Z,4.31
2023-02-19T05:17:25.302Z,4.39
2023-02-19T05:22:31.694Z,4.36
2023-02-19T05:27:37.340Z,4.38
2023-02-19T05:32:44.164Z,4.43
2023-02-19T05:37:49.616Z,4.48
2023-02-19T05:42:55.007Z,4.49
2023-02-19T05:48:00.802Z,4.50
2023-02-19T05:53:07.318Z,4.61
2023-02-19T05:58:12.704Z,4.49
2023-02-19T06:03:18.294Z,4.53
2023-02-19T06:08:23.829Z,4.49
2023-02-19T06:13:29.244Z,4.57
2023-02-19T06:18:34.777Z,4.41
2023-02-19T06:23:41.365Z,4.44
2023-02-19T06:28:48.802Z,4.38
2023-02-19T06:33:55.250Z,4.41
2023-02-19T06:39:05.158Z,4.41
2023-02-19T06:44:10.621Z,4.37
2023-02-19T06:49:16.081Z,4.31
2023-02-19T06:54:21.598Z,4.37
2023-02-19T06:59:27.635Z,4.36
2023-02-19T07:04:33.335Z,4.38
2023-02-19T07:09:38.891Z,4.43
2023-02-19T07:14:44.360Z,4.45
2023-02-19T07:19:49.746Z,4.40
2023-02-19T07:24:55.297Z,4.49
2023-02-19T07:30:00.792Z,4.52
2023-02-19T07:35:06.931Z,4.48
2023-02-19T07:40:13.534Z,4.51
2023-02-19T07:45:18.996Z,4.72
2023-02-19T07:50:24.455Z,4.70
2023-02-19T07:55:29.922Z,4.71
2023-02-19T08:00:35.376Z,4.69
2023-02-19T08:05:44.106Z,4.61
2023-02-19T08:11:07.823Z,4.69
2023-02-19T08:16:24.115Z,4.97
2023-02-19T08:21:24.685Z,4.97
2023-02-19T08:26:30.711Z,5.06
2023-02-19T08:31:37.649Z,4.92
2023-02-19T08:36:44.340Z,4.92
2023-02-19T08:41:50.668Z,5.21
2023-02-19T08:46:56.272Z,5.21
2023-02-19T08:52:01.857Z,5.03
2023-02-19T08:57:07.388Z,4.99
2023-02-19T09:02:12.849Z,5.04
2023-02-19T09:07:19.499Z,5.11
2023-02-19T09:12:25.885Z,5.25
2023-02-19T09:17:31.346Z,5.38
2023-02-19T09:22:36.974Z,5.38
2023-02-19T09:27:42.431Z,5.79
2023-02-19T09:32:48.304Z,5.79
2023-02-19T09:37:53.788Z,5.95
2023-02-19T09:43:01.642Z,5.89
2023-02-19T09:48:07.873Z,6.07
2023-02-19T09:53:25.358Z,5.98
2023-02-19T09:58:33.781Z,6.17
2023-02-19T10:03:43.382Z,6.10
2023-02-19T10:08:51.883Z,6.21
2023-02-19T10:14:07.860Z,6.37
2023-02-19T10:19:14.570Z,6.27
2023-02-19T10:24:26.223Z,6.23
2023-02-19T10:29:31.623Z,6.42
2023-02-19T10:34:37.156Z,6.56
2023-02-19T10:39:48.069Z,6.72
2023-02-19T10:45:01.026Z,6.96
2023-02-19T10:50:08.955Z,6.84
2023-02-19T10:55:26.367Z,6.86
2023-02-19T11:00:32.278Z,6.97
2023-02-19T11:05:40.864Z,6.84
2023-02-19T11:10:49.507Z,7.10
2023-02-19T11:15:56.283Z,6.85
2023-02-19T11:21:08.414Z,7.17
2023-02-19T11:26:19.727Z,7.50
2023-02-19T11:31:27.988Z,7.27
2023-02-19T11:36:38.707Z,7.16
2023-02-19T11:42:05.304Z,7.25
2023-02-19T11:47:34.756Z,7.22
2023-02-19T11:52:58.475Z,7.36
2023-02-19T11:58:15.662Z,7.18
2023-02-19T12:03:30.772Z,6.94
2023-02-19T12:08:54.283Z,6.90
2023-02-19T12:14:17.907Z,6.83
2023-02-19T12:19:32.570Z,6.75
2023-02-19T12:24:50.353Z,6.81
2023-02-19T12:30:17.269Z,6.96
2023-02-19T12:35:34.553Z,7.42
2023-02-19T12:40:43.138Z,7.79
2023-02-19T12:45:59.153Z,8.10
2023-02-19T12:51:10.650Z,8.18
2023-02-19T12:56:34.589Z,7.93
2023-02-19T13:01:45.980Z,8.17
2023-02-19T13:07:00.525Z,7.54
2023-02-19T13:12:14.800Z,7.02
2023-02-19T13:17:41.378Z,6.91
2023-02-19T13:23:07.803Z,6.65
2023-02-19T13:28:51.011Z,6.47
2023-02-19T13:34:05.332Z,6.41
2023-02-19T13:44:22.116Z,6.85
2023-02-19T13:49:32.301Z,6.80
2023-02-19T13:54:39.573Z,6.86
2023-02-19T13:59:48.338Z,6.92
2023-02-19T14:05:02.383Z,7.06
2023-02-19T14:10:10.893Z,6.95
2023-02-19T14:15:43.890Z,7.03
2023-02-19T14:20:49.551Z,6.71
2023-02-19T14:26:03.891Z,6.77
2023-02-19T14:31:18.565Z,6.69
2023-02-19T14:36:44.364Z,6.42
2023-02-19T14:41:56.029Z,6.38
2023-02-19T14:47:10.242Z,6.47
2023-02-19T14:52:32.240Z,6.51
2023-02-19T14:57:43.308Z,6.58
2023-02-19T15:02:49.532Z,6.62
2023-02-19T15:07:57.562Z,6.74
2023-02-19T15:13:05.320Z,6.67
2023-02-19T15:18:19.275Z,6.68
2023-02-19T15:23:26.427Z,6.77
2023-02-19T15:28:34.818Z,6.75
2023-02-19T15:33:40.277Z,6.71
2023-02-19T15:38:46.188Z,6.60
2023-02-19T15:43:57.729Z,6.51
2023-02-19T15:49:15.063Z,6.35
2023-02-19T15:54:32.731Z,6.19
2023-02-19T15:59:41.239Z,6.08
2023-02-19T16:04:47.363Z,5.99
2023-02-19T16:10:07.512Z,5.95
2023-02-19T16:15:15.941Z,5.89
2023-02-19T16:20:36.411Z,5.85
2023-02-19T16:25:47.362Z,5.74
2023-02-19T16:31:07.428Z,5.64
2023-02-19T16:36:37.931Z,5.51
2023-02-19T16:41:52.569Z,5.51
2023-02-19T16:47:00.999Z,5.41
2023-02-19T16:52:06.710Z,5.36
2023-02-19T16:57:12.282Z,5.25
2023-02-19T17:02:20.967Z,5.25
2023-02-19T17:07:27.572Z,5.11
2023-02-19T17:12:33.140Z,5.09
2023-02-19T17:17:38.700Z,4.99
2023-02-19T17:22:44.567Z,4.86
2023-02-19T17:27:50.096Z,4.78
2023-02-19T17:32:55.945Z,4.71
2023-02-19T17:38:01.406Z,4.66
2023-02-19T17:43:08.029Z,4.59
2023-02-19T17:48:14.772Z,4.56
2023-02-19T17:53:20.605Z,4.56
2023-02-19T17:58:26.224Z,4.53
2023-02-19T18:03:31.677Z,4.45
2023-02-19T18:08:37.710Z,4.43
2023-02-19T18:13:43.324Z,4.41
2023-02-19T18:18:48.822Z,4.37
2023-02-19T18:23:54.352Z,4.35
2023-02-19T18:28:59.938Z,4.30
2023-02-19T18:34:06.626Z,4.31
2023-02-19T18:39:12.475Z,4.30
2023-02-19T18:44:23.719Z,4.32
2023-02-19T18:49:29.842Z,4.29
2023-02-19T18:54:35.567Z,4.26
2023-02-19T18:59:43.292Z,4.22
2023-02-19T19:04:54.547Z,4.18
2023-02-19T19:10:00.196Z,4.23
2023-02-19T19:15:06.414Z,4.21
2023-02-19T19:20:12.493Z,4.18
2023-02-19T19:25:18.587Z,4.22
2023-02-19T19:30:24.314Z,4.17
2023-02-19T19:35:29.923Z,4.20
2023-02-19T19:40:35.400Z,4.13
2023-02-19T19:45:41.043Z,4.22
2023-02-19T19:50:46.863Z,4.17
2023-02-19T19:55:52.678Z,4.18
2023-02-19T20:00:59.180Z,4.14
2023-02-19T20:06:05.018Z,4.17
2023-02-19T20:11:10.897Z,4.13
2023-02-19T20:16:16.856Z,4.13
2023-02-19T20:21:22.457Z,4.10
2023-02-19T20:26:29.874Z,4.10
2023-02-19T20:31:35.519Z,4.03
2023-02-19T20:36:45.787Z,3.99
2023-02-19T20:41:52.993Z,4.02
2023-02-19T20:47:00.323Z,4.00
2023-02-19T20:52:09.288Z,4.06
2023-02-19T20:57:15.970Z,4.00
2023-02-19T21:02:28.763Z,3.99
2023-02-19T21:07:34.264Z,3.99
2023-02-19T21:12:40.836Z,4.02
2023-02-19T21:17:47.344Z,4.08
2023-02-19T21:22:52.722Z,4.11
2023-02-19T21:27:58.105Z,4.11
2023-02-19T21:33:04.174Z,4.12
2023-02-19T21:38:10.057Z,4.12
2023-02-19T21:43:15.661Z,4.09
2023-02-19T21:48:21.208Z,4.10
2023-02-19T21:53:26.805Z,4.10
2023-02-19T21:58:32.325Z,4.13
2023-02-19T22:03:37.851Z,4.06
2023-02-19T22:08:44.174Z,4.05
2023-02-19T22:13:49.725Z,4.06
2023-02-19T22:18:57.495Z,4.07
2023-02-19T22:24:04.410Z,4.15
2023-02-19T22:29:11.539Z,4.17
2023-02-19T22:34:17.703Z,4.19
2023-02-19T22:39:26.137Z,4.25
2023-02-19T22:44:31.597Z,4.34
2023-02-19T22:49:39.566Z,4.33
2023-02-19T22:54:45.067Z,4.35
2023-02-19T22:59:52.999Z,4.32
2023-02-19T23:04:58.481Z,4.30
2023-02-19T23:10:03.998Z,4.27
2023-02-19T23:15:11.043Z,4.19
2023-02-19T23:20:16.556Z,4.22
2023-02-19T23:25:21.945Z,4.16
2023-02-19T23:30:27.571Z,4.17
2023-02-19T23:35:33.020Z,4.13
2023-02-19T23:40:38.539Z,4.12
2023-02-19T23:45:44.188Z,4.01
2023-02-19T23:50:49.710Z,3.98
2023-02-19T23:55:55.442Z,3.98
